Nyk Deneb — 3EOF8 — position and weather

sailwx.info

Track history (hours):
 
Tides and Currents Weather Stations Pressure Air Temp Water Temp Dewpoint Dewpoint Depression Visibility Wind Speed Wind Dir Waves Ship Positions

Nyk Deneb

Last reported at 2018-Feb-04 07:46 UTC. Time now 2018-Apr-26 23:17 UTC.
Position N 53°30' E 009°56'.
Warning: this ship's position is months out of date.

Length 294 m; draft 11.3 m.

Type: Ship (hazmat cat B). MMSI: 355717000.

Date/timePositionNaut miles runAvg speedWind from/ knotsBaromVisibWave heightAir tempDewpointWater temp
2018-Feb-04 07:46N 53°30' E 009°56'0 0.0
2018-Feb-04 07:28N 53°30' E 009°56'0 0.0
2018-Feb-04 06:58N 53°30' E 009°56'0 0.0
2018-Feb-04 06:28N 53°30' E 009°56'0 0.0
2018-Feb-04 06:01N 53°30' E 009°56'0 0.0
2018-Feb-04 05:28N 53°30' E 009°56'0 0.0
2018-Feb-04 04:58N 53°30' E 009°56'0 0.0
2018-Feb-04 04:28N 53°30' E 009°56'0 0.0
2018-Feb-04 03:58N 53°30' E 009°56'0 0.0
2018-Feb-04 03:28N 53°30' E 009°56'0 0.0
2018-Feb-04 02:58N 53°30' E 009°56'0 0.0
2018-Feb-04 02:28N 53°30' E 009°56'0 0.0
2018-Feb-04 01:55N 53°30' E 009°56'0 0.0
2018-Feb-04 01:28N 53°30' E 009°56'0 0.0
2018-Feb-04 00:55N 53°30' E 009°56'0 0.0
2018-Feb-04 00:28N 53°30' E 009°56'0 0.0
2018-Feb-03 23:58N 53°30' E 009°56'0 0.0
2018-Feb-03 23:28N 53°30' E 009°56'0 0.0
2018-Feb-03 22:58N 53°30' E 009°56'0 0.0
2018-Feb-03 22:28N 53°30' E 009°56'0 0.0
2018-Feb-03 21:58N 53°30' E 009°56'0 0.0
2018-Feb-03 21:28N 53°30' E 009°56'0 0.0
2018-Feb-03 20:58N 53°30' E 009°56'0 0.0
2018-Feb-03 20:28N 53°30' E 009°56'0 0.0
2018-Feb-03 19:58N 53°30' E 009°56'0 0.1
2018-Feb-03 18:31N 53°30' E 009°56'0 0.4
2018-Feb-03 18:01N 53°30' E 009°56'3 6.1
2018-Feb-03 17:31N 53°33' E 009°53'4 8.5
2018-Feb-03 17:01N 53°34' E 009°46'9 9.5
2018-Feb-03 16:01N 53°38' E 009°32'611.5
2018-Feb-03 15:30N 53°43' E 009°28'713.1
2018-Feb-03 15:00N 53°49' E 009°22'714.2
2018-Feb-03 14:30N 53°53' E 009°12'510.1
2018-Feb-03 14:00N 53°52' E 009°04'510.6
2018-Feb-03 13:31N 53°51' E 008°55'612.7
2018-Feb-03 13:00N 53°52' E 008°44'612.8
2018-Feb-03 12:30N 53°57' E 008°38'714.3
2018-Feb-03 12:00N 53°59' E 008°27'713.6
2018-Feb-03 11:29N 53°60' E 008°15'611.7
2018-Feb-03 11:00N 53°59' E 008°05'611.4
2018-Feb-03 10:30N 53°60' E 007°55'2 4.6
2018-Feb-03 10:00N 53°60' E 007°59'1 1.0
2018-Feb-03 09:30N 53°59' E 007°59'4 7.9
2018-Feb-03 09:00N 53°59' E 007°52'3 5.8
2018-Feb-03 08:30N 53°60' E 007°47'1 1.9
2018-Feb-03 07:58N 53°59' E 007°47'10414.8
2018-Feb-03 00:59N 53°29' E 004°59'918.2
2018-Feb-03 00:29N 53°25' E 004°45'1417.8
2018-Feb-02 23:42N 53°12' E 004°36'417.9
2018-Feb-02 23:30N 53°09' E 004°33'917.7
2018-Feb-02 23:01N 53°03' E 004°23'917.9
2018-Feb-02 22:31N 52°55' E 004°16'917.6
2018-Feb-02 22:00N 52°47' E 004°08'1617.5
2018-Feb-02 21:04N 52°33' E 003°55'117.8
2018-Feb-02 20:59N 52°32' E 003°55'817.8
2018-Feb-02 20:31N 52°23' E 003°53'917.8
2018-Feb-02 20:00N 52°14' E 003°54'1212.3
2018-Feb-02 19:00N 52°02' E 003°56'612.2
2018-Feb-02 18:30N 51°59' E 004°04'2 3.8
2018-Feb-02 18:00N 51°57' E 004°04'1 1.9
2018-Feb-02 17:30N 51°57' E 004°03'0 0.0
2018-Feb-02 17:00N 51°57' E 004°03'0 0.0
2018-Feb-02 16:30N 51°57' E 004°03'0 0.0
2018-Feb-02 15:27N 51°57' E 004°03'0 0.0
2018-Feb-02 14:30N 51°57' E 004°03'0 0.0
2018-Feb-02 14:00N 51°57' E 004°03'0 0.0
2018-Feb-02 13:30N 51°57' E 004°03'0 0.0
2018-Feb-02 13:00N 51°57' E 004°03'0 0.0
2018-Feb-02 12:30N 51°57' E 004°03'0 0.0
2018-Feb-02 12:00N 51°57' E 004°03'0 0.0
2018-Feb-02 11:30N 51°57' E 004°03'0 0.0
2018-Feb-02 10:57N 51°57' E 004°03'0 0.0
2018-Feb-02 10:27N 51°57' E 004°03'0 0.0
2018-Feb-02 10:00N 51°57' E 004°03'0 0.0
2018-Feb-02 09:30N 51°57' E 004°03'0 0.0
2018-Feb-02 09:00N 51°57' E 004°03'0 0.0
2018-Feb-02 08:30N 51°57' E 004°03'0 0.0
2018-Feb-02 08:00N 51°57' E 004°03'0 0.0
2018-Feb-02 07:30N 51°57' E 004°03'0 0.0
2018-Feb-02 07:00N 51°57' E 004°03'0 0.0
2018-Feb-02 06:24N 51°57' E 004°03'0 0.0
2018-Feb-02 05:57N 51°57' E 004°03'0 0.0
2018-Feb-02 05:30N 51°57' E 004°03'0 0.0
2018-Feb-02 05:00N 51°57' E 004°03'0 0.0
2018-Feb-02 04:30N 51°57' E 004°03'0 0.0
2018-Feb-02 04:00N 51°57' E 004°03'0 0.0
2018-Feb-02 03:30N 51°57' E 004°03'0 0.0
2018-Feb-02 03:00N 51°57' E 004°03'0 0.0
2018-Feb-02 02:30N 51°57' E 004°03'0 0.0
2018-Feb-02 02:00N 51°57' E 004°03'0 0.0
2018-Feb-02 01:30N 51°57' E 004°03'0 0.0
2018-Feb-02 01:00N 51°57' E 004°03'0 0.0
2018-Feb-02 00:30N 51°57' E 004°03'0 0.0
2018-Feb-02 00:00N 51°57' E 004°03'0 0.0
2018-Feb-01 23:30N 51°57' E 004°03'0 0.0
2018-Feb-01 23:00N 51°57' E 004°03'0 0.0
2018-Feb-01 22:00N 51°57' E 004°03'1 1.8
2018-Feb-01 21:30N 51°57' E 004°04'13 6.5
2018-Feb-01 19:30N 51°59' E 003°43'3 6.5
2018-Feb-01 19:00N 51°58' E 003°38'4 7.4
2018-Feb-01 18:30N 51°57' E 003°33'4 7.9
2018-Feb-01 18:00N 51°56' E 003°26'5 8.1
2018-Feb-01 17:27N 51°55' E 003°19'4110.5
2018-Feb-01 13:31N 51°35' E 002°21'612.0
2018-Feb-01 13:01N 51°31' E 002°14'611.9
2018-Feb-01 12:31N 51°26' E 002°08'611.8
2018-Feb-01 12:01N 51°22' E 002°02'1111.4
2018-Feb-01 11:00N 51°13' E 001°49'510.9
2018-Feb-01 10:30N 51°09' E 001°44'612.6
2018-Feb-01 10:00N 51°04' E 001°38'612.5
2018-Feb-01 09:30N 50°59' E 001°31'611.8
2018-Feb-01 09:01N 50°55' E 001°26'510.7
2018-Feb-01 08:30N 50°49' E 001°23'1210.6
2018-Feb-01 07:25N 50°39' E 001°16'1411.8
2018-Feb-01 06:15N 50°31' E 000°59'312.6
2018-Feb-01 06:00N 50°30' E 000°54'712.5
2018-Feb-01 05:25N 50°28' E 000°43'712.2
2018-Feb-01 04:49N 50°26' E 000°32'412.0
2018-Feb-01 04:30N 50°25' E 000°26'612.0
2018-Feb-01 04:00N 50°23' E 000°17'1211.9
2018-Feb-01 03:00N 50°21' W 000°01'612.0
2018-Feb-01 02:30N 50°21' W 000°11'611.9
2018-Feb-01 02:00N 50°21' W 000°20'611.5
2018-Feb-01 01:30N 50°22' W 000°29'612.4
2018-Feb-01 01:00N 50°26' W 000°36'612.6
2018-Feb-01 00:30N 50°30' W 000°44'611.9
2018-Feb-01 00:01N 50°34' W 000°51'1110.6
2018-Jan-31 23:01N 50°43' W 000°60'816.0
2018-Jan-31 22:30N 50°46' W 001°12'13 8.4
2018-Jan-31 21:01N 50°54' W 001°26'1 1.3
2018-Jan-31 20:31N 50°54' W 001°27'0 0.0
2018-Jan-31 19:59N 50°54' W 001°27'0 0.0
2018-Jan-31 19:29N 50°54' W 001°27'0 0.0
2018-Jan-31 18:59N 50°54' W 001°27'0 0.0
2018-Jan-31 18:26N 50°54' W 001°27'0 0.0
2018-Jan-31 17:56N 50°54' W 001°27'0 0.0
2018-Jan-31 16:44N 50°54' W 001°27'0 0.0
2018-Jan-31 16:14N 50°54' W 001°27'0 0.0
2018-Jan-31 15:50N 50°54' W 001°27'0 0.0
2018-Jan-31 15:20N 50°54' W 001°27'0 0.0
2018-Jan-31 14:50N 50°54' W 001°27'0 0.0
2018-Jan-31 14:20N 50°54' W 001°27'0 0.0
2018-Jan-31 12:53N 50°54' W 001°27'0 0.0
2018-Jan-31 12:23N 50°54' W 001°27'0 0.0
2018-Jan-31 11:53N 50°54' W 001°27'0 0.0
2018-Jan-31 11:23N 50°54' W 001°27'0 0.0
2018-Jan-31 10:56N 50°54' W 001°27'0 0.0
2018-Jan-31 10:26N 50°54' W 001°27'0 0.0
2018-Jan-31 09:53N 50°54' W 001°27'0 0.0
2018-Jan-31 09:08N 50°54' W 001°27'0 0.0
2018-Jan-31 08:56N 50°54' W 001°27'0 0.0
2018-Jan-31 08:26N 50°54' W 001°27'0 0.0
2018-Jan-31 07:56N 50°54' W 001°27'0 0.0
2018-Jan-31 07:26N 50°54' W 001°27'0 0.0
2018-Jan-31 06:38N 50°54' W 001°27'0 0.0
2018-Jan-31 06:26N 50°54' W 001°27'0 0.0
2018-Jan-31 05:56N 50°54' W 001°27'0 0.0
2018-Jan-31 05:26N 50°54' W 001°27'0 0.0
2018-Jan-31 04:59N 50°54' W 001°27'1 1.3
2018-Jan-31 04:30N 50°54' W 001°26'3 6.1
2018-Jan-31 04:01N 50°52' W 001°23'5 9.4
2018-Jan-31 03:30N 50°49' W 001°18'4 8.3
2018-Jan-31 03:00N 50°46' W 001°13'815.3
2018-Jan-31 02:30N 50°43' W 001°02'510.5
2018-Jan-31 02:00N 50°39' W 000°57'4 8.5
2018-Jan-31 01:30N 50°35' W 000°58'611.9
2018-Jan-31 01:00N 50°30' W 001°03'1514.7
2018-Jan-31 00:00N 50°26' W 001°25'3180.5
2018-Jan-31 00:00N 50°24' W 001°24'816.1 250 / 251025.7 5.4 13.011.210.0
2018-Jan-30 23:30N 50°24' W 001°36'714.6
2018-Jan-30 23:00N 50°22' W 001°47'714.7
2018-Jan-30 22:30N 50°20' W 001°58'1514.6
2018-Jan-30 21:31N 50°16' W 002°20'714.8
2018-Jan-30 21:00N 50°14' W 002°32'714.8
2018-Jan-30 20:30N 50°13' W 002°43'714.8
2018-Jan-30 20:00N 50°11' W 002°54'714.8
2018-Jan-30 19:30N 50°09' W 003°05'714.8
2018-Jan-30 19:01N 50°07' W 003°16'714.8
2018-Jan-30 18:30N 50°05' W 003°27'814.9
2018-Jan-30 18:00N 50°03' W 003°39'815.3
2018-Jan-30 17:31N 50°01' W 003°50'815.2
2018-Jan-30 17:00N 49°59' W 004°02'715.2
2018-Jan-30 16:30N 49°57' W 004°13'815.0
2018-Jan-30 16:00N 49°56' W 004°25'714.9
2018-Jan-30 15:30N 49°54' W 004°36'715.0
2018-Jan-30 15:00N 49°52' W 004°47'714.9
2018-Jan-30 14:30N 49°51' W 004°58'1515.2
2018-Jan-30 13:30N 49°47' W 005°21'1717.2
2018-Jan-30 12:29N 49°43' W 005°48'39916.3
2018-Jan-29 12:00N 50°30' W 016°06'87918.3 330 / 251042.2 5.4 13.0 7.311.0
2018-Jan-27 12:00N 48°36' W 038°30'   270 / 291024.2 5.4 7.0 2.612.0
Track history (hours):
 
Tides and Currents Weather Stations Pressure Air Temp Water Temp Dewpoint Dewpoint Depression Visibility Wind Speed Wind Dir Waves Ship Positions

Nyk Deneb

Last reported at 2018-Feb-04 07:46 UTC. Time now 2018-Apr-26 23:17 UTC.
Position N 53°30' E 009°56'.
Warning: this ship's position is months out of date.

Length 294 m; draft 11.3 m.

Type: Ship (hazmat cat B). MMSI: 355717000.

Date/timePositionNaut miles runAvg speedWind from/ knotsBaromVisibWave heightAir tempDewpointWater temp
2018-Feb-04 07:46N 53°30' E 009°56'0 0.0
2018-Feb-04 07:28N 53°30' E 009°56'0 0.0
2018-Feb-04 06:58N 53°30' E 009°56'0 0.0
2018-Feb-04 06:28N 53°30' E 009°56'0 0.0
2018-Feb-04 06:01N 53°30' E 009°56'0 0.0
2018-Feb-04 05:28N 53°30' E 009°56'0 0.0
2018-Feb-04 04:58N 53°30' E 009°56'0 0.0
2018-Feb-04 04:28N 53°30' E 009°56'0 0.0
2018-Feb-04 03:58N 53°30' E 009°56'0 0.0
2018-Feb-04 03:28N 53°30' E 009°56'0 0.0
2018-Feb-04 02:58N 53°30' E 009°56'0 0.0
2018-Feb-04 02:28N 53°30' E 009°56'0 0.0
2018-Feb-04 01:55N 53°30' E 009°56'0 0.0
2018-Feb-04 01:28N 53°30' E 009°56'0 0.0
2018-Feb-04 00:55N 53°30' E 009°56'0 0.0
2018-Feb-04 00:28N 53°30' E 009°56'0 0.0
2018-Feb-03 23:58N 53°30' E 009°56'0 0.0
2018-Feb-03 23:28N 53°30' E 009°56'0 0.0
2018-Feb-03 22:58N 53°30' E 009°56'0 0.0
2018-Feb-03 22:28N 53°30' E 009°56'0 0.0
2018-Feb-03 21:58N 53°30' E 009°56'0 0.0
2018-Feb-03 21:28N 53°30' E 009°56'0 0.0
2018-Feb-03 20:58N 53°30' E 009°56'0 0.0
2018-Feb-03 20:28N 53°30' E 009°56'0 0.0
2018-Feb-03 19:58N 53°30' E 009°56'0 0.1
2018-Feb-03 18:31N 53°30' E 009°56'0 0.4
2018-Feb-03 18:01N 53°30' E 009°56'3 6.1
2018-Feb-03 17:31N 53°33' E 009°53'4 8.5
2018-Feb-03 17:01N 53°34' E 009°46'9 9.5
2018-Feb-03 16:01N 53°38' E 009°32'611.5
2018-Feb-03 15:30N 53°43' E 009°28'713.1
2018-Feb-03 15:00N 53°49' E 009°22'714.2
2018-Feb-03 14:30N 53°53' E 009°12'510.1
2018-Feb-03 14:00N 53°52' E 009°04'510.6
2018-Feb-03 13:31N 53°51' E 008°55'612.7
2018-Feb-03 13:00N 53°52' E 008°44'612.8
2018-Feb-03 12:30N 53°57' E 008°38'714.3
2018-Feb-03 12:00N 53°59' E 008°27'713.6
2018-Feb-03 11:29N 53°60' E 008°15'611.7
2018-Feb-03 11:00N 53°59' E 008°05'611.4
2018-Feb-03 10:30N 53°60' E 007°55'2 4.6
2018-Feb-03 10:00N 53°60' E 007°59'1 1.0
2018-Feb-03 09:30N 53°59' E 007°59'4 7.9
2018-Feb-03 09:00N 53°59' E 007°52'3 5.8
2018-Feb-03 08:30N 53°60' E 007°47'1 1.9
2018-Feb-03 07:58N 53°59' E 007°47'10414.8
2018-Feb-03 00:59N 53°29' E 004°59'918.2
2018-Feb-03 00:29N 53°25' E 004°45'1417.8
2018-Feb-02 23:42N 53°12' E 004°36'417.9
2018-Feb-02 23:30N 53°09' E 004°33'917.7
2018-Feb-02 23:01N 53°03' E 004°23'917.9
2018-Feb-02 22:31N 52°55' E 004°16'917.6
2018-Feb-02 22:00N 52°47' E 004°08'1617.5
2018-Feb-02 21:04N 52°33' E 003°55'117.8
2018-Feb-02 20:59N 52°32' E 003°55'817.8
2018-Feb-02 20:31N 52°23' E 003°53'917.8
2018-Feb-02 20:00N 52°14' E 003°54'1212.3
2018-Feb-02 19:00N 52°02' E 003°56'612.2
2018-Feb-02 18:30N 51°59' E 004°04'2 3.8
2018-Feb-02 18:00N 51°57' E 004°04'1 1.9
2018-Feb-02 17:30N 51°57' E 004°03'0 0.0
2018-Feb-02 17:00N 51°57' E 004°03'0 0.0
2018-Feb-02 16:30N 51°57' E 004°03'0 0.0
2018-Feb-02 15:27N 51°57' E 004°03'0 0.0
2018-Feb-02 14:30N 51°57' E 004°03'0 0.0
2018-Feb-02 14:00N 51°57' E 004°03'0 0.0
2018-Feb-02 13:30N 51°57' E 004°03'0 0.0
2018-Feb-02 13:00N 51°57' E 004°03'0 0.0
2018-Feb-02 12:30N 51°57' E 004°03'0 0.0
2018-Feb-02 12:00N 51°57' E 004°03'0 0.0
2018-Feb-02 11:30N 51°57' E 004°03'0 0.0
2018-Feb-02 10:57N 51°57' E 004°03'0 0.0
2018-Feb-02 10:27N 51°57' E 004°03'0 0.0
2018-Feb-02 10:00N 51°57' E 004°03'0 0.0
2018-Feb-02 09:30N 51°57' E 004°03'0 0.0
2018-Feb-02 09:00N 51°57' E 004°03'0 0.0
2018-Feb-02 08:30N 51°57' E 004°03'0 0.0
2018-Feb-02 08:00N 51°57' E 004°03'0 0.0
2018-Feb-02 07:30N 51°57' E 004°03'0 0.0
2018-Feb-02 07:00N 51°57' E 004°03'0 0.0
2018-Feb-02 06:24N 51°57' E 004°03'0 0.0
2018-Feb-02 05:57N 51°57' E 004°03'0 0.0
2018-Feb-02 05:30N 51°57' E 004°03'0 0.0
2018-Feb-02 05:00N 51°57' E 004°03'0 0.0
2018-Feb-02 04:30N 51°57' E 004°03'0 0.0
2018-Feb-02 04:00N 51°57' E 004°03'0 0.0
2018-Feb-02 03:30N 51°57' E 004°03'0 0.0
2018-Feb-02 03:00N 51°57' E 004°03'0 0.0
2018-Feb-02 02:30N 51°57' E 004°03'0 0.0
2018-Feb-02 02:00N 51°57' E 004°03'0 0.0
2018-Feb-02 01:30N 51°57' E 004°03'0 0.0
2018-Feb-02 01:00N 51°57' E 004°03'0 0.0
2018-Feb-02 00:30N 51°57' E 004°03'0 0.0
2018-Feb-02 00:00N 51°57' E 004°03'0 0.0
2018-Feb-01 23:30N 51°57' E 004°03'0 0.0
2018-Feb-01 23:00N 51°57' E 004°03'0 0.0
2018-Feb-01 22:00N 51°57' E 004°03'1 1.8
2018-Feb-01 21:30N 51°57' E 004°04'13 6.5
2018-Feb-01 19:30N 51°59' E 003°43'3 6.5
2018-Feb-01 19:00N 51°58' E 003°38'4 7.4
2018-Feb-01 18:30N 51°57' E 003°33'4 7.9
2018-Feb-01 18:00N 51°56' E 003°26'5 8.1
2018-Feb-01 17:27N 51°55' E 003°19'4110.5
2018-Feb-01 13:31N 51°35' E 002°21'612.0
2018-Feb-01 13:01N 51°31' E 002°14'611.9
2018-Feb-01 12:31N 51°26' E 002°08'611.8
2018-Feb-01 12:01N 51°22' E 002°02'1111.4
2018-Feb-01 11:00N 51°13' E 001°49'510.9
2018-Feb-01 10:30N 51°09' E 001°44'612.6
2018-Feb-01 10:00N 51°04' E 001°38'612.5
2018-Feb-01 09:30N 50°59' E 001°31'611.8
2018-Feb-01 09:01N 50°55' E 001°26'510.7
2018-Feb-01 08:30N 50°49' E 001°23'1210.6
2018-Feb-01 07:25N 50°39' E 001°16'1411.8
2018-Feb-01 06:15N 50°31' E 000°59'312.6
2018-Feb-01 06:00N 50°30' E 000°54'712.5
2018-Feb-01 05:25N 50°28' E 000°43'712.2
2018-Feb-01 04:49N 50°26' E 000°32'412.0
2018-Feb-01 04:30N 50°25' E 000°26'612.0
2018-Feb-01 04:00N 50°23' E 000°17'1211.9
2018-Feb-01 03:00N 50°21' W 000°01'612.0
2018-Feb-01 02:30N 50°21' W 000°11'611.9
2018-Feb-01 02:00N 50°21' W 000°20'611.5
2018-Feb-01 01:30N 50°22' W 000°29'612.4
2018-Feb-01 01:00N 50°26' W 000°36'612.6
2018-Feb-01 00:30N 50°30' W 000°44'611.9
2018-Feb-01 00:01N 50°34' W 000°51'1110.6
2018-Jan-31 23:01N 50°43' W 000°60'816.0
2018-Jan-31 22:30N 50°46' W 001°12'13 8.4
2018-Jan-31 21:01N 50°54' W 001°26'1 1.3
2018-Jan-31 20:31N 50°54' W 001°27'0 0.0
2018-Jan-31 19:59N 50°54' W 001°27'0 0.0
2018-Jan-31 19:29N 50°54' W 001°27'0 0.0
2018-Jan-31 18:59N 50°54' W 001°27'0 0.0
2018-Jan-31 18:26N 50°54' W 001°27'0 0.0
2018-Jan-31 17:56N 50°54' W 001°27'0 0.0
2018-Jan-31 16:44N 50°54' W 001°27'0 0.0
2018-Jan-31 16:14N 50°54' W 001°27'0 0.0
2018-Jan-31 15:50N 50°54' W 001°27'0 0.0
2018-Jan-31 15:20N 50°54' W 001°27'0 0.0
2018-Jan-31 14:50N 50°54' W 001°27'0 0.0
2018-Jan-31 14:20N 50°54' W 001°27'0 0.0
2018-Jan-31 12:53N 50°54' W 001°27'0 0.0
2018-Jan-31 12:23N 50°54' W 001°27'0 0.0
2018-Jan-31 11:53N 50°54' W 001°27'0 0.0
2018-Jan-31 11:23N 50°54' W 001°27'0 0.0
2018-Jan-31 10:56N 50°54' W 001°27'0 0.0
2018-Jan-31 10:26N 50°54' W 001°27'0 0.0
2018-Jan-31 09:53N 50°54' W 001°27'0 0.0
2018-Jan-31 09:08N 50°54' W 001°27'0 0.0
2018-Jan-31 08:56N 50°54' W 001°27'0 0.0
2018-Jan-31 08:26N 50°54' W 001°27'0 0.0
2018-Jan-31 07:56N 50°54' W 001°27'0 0.0
2018-Jan-31 07:26N 50°54' W 001°27'0 0.0
2018-Jan-31 06:38N 50°54' W 001°27'0 0.0
2018-Jan-31 06:26N 50°54' W 001°27'0 0.0
2018-Jan-31 05:56N 50°54' W 001°27'0 0.0
2018-Jan-31 05:26N 50°54' W 001°27'0 0.0
2018-Jan-31 04:59N 50°54' W 001°27'1 1.3
2018-Jan-31 04:30N 50°54' W 001°26'3 6.1
2018-Jan-31 04:01N 50°52' W 001°23'5 9.4
2018-Jan-31 03:30N 50°49' W 001°18'4 8.3
2018-Jan-31 03:00N 50°46' W 001°13'815.3
2018-Jan-31 02:30N 50°43' W 001°02'510.5
2018-Jan-31 02:00N 50°39' W 000°57'4 8.5
2018-Jan-31 01:30N 50°35' W 000°58'611.9
2018-Jan-31 01:00N 50°30' W 001°03'1514.7
2018-Jan-31 00:00N 50°26' W 001°25'3180.5
2018-Jan-31 00:00N 50°24' W 001°24'816.1 250 / 251025.7 5.4 13.011.210.0
2018-Jan-30 23:30N 50°24' W 001°36'714.6
2018-Jan-30 23:00N 50°22' W 001°47'714.7
2018-Jan-30 22:30N 50°20' W 001°58'1514.6
2018-Jan-30 21:31N 50°16' W 002°20'714.8
2018-Jan-30 21:00N 50°14' W 002°32'714.8
2018-Jan-30 20:30N 50°13' W 002°43'714.8
2018-Jan-30 20:00N 50°11' W 002°54'714.8
2018-Jan-30 19:30N 50°09' W 003°05'714.8
2018-Jan-30 19:01N 50°07' W 003°16'714.8
2018-Jan-30 18:30N 50°05' W 003°27'814.9
2018-Jan-30 18:00N 50°03' W 003°39'815.3
2018-Jan-30 17:31N 50°01' W 003°50'815.2
2018-Jan-30 17:00N 49°59' W 004°02'715.2
2018-Jan-30 16:30N 49°57' W 004°13'815.0
2018-Jan-30 16:00N 49°56' W 004°25'714.9
2018-Jan-30 15:30N 49°54' W 004°36'715.0
2018-Jan-30 15:00N 49°52' W 004°47'714.9
2018-Jan-30 14:30N 49°51' W 004°58'1515.2
2018-Jan-30 13:30N 49°47' W 005°21'1717.2
2018-Jan-30 12:29N 49°43' W 005°48'39916.3
2018-Jan-29 12:00N 50°30' W 016°06'87918.3 330 / 251042.2 5.4 13.0 7.311.0
2018-Jan-27 12:00N 48°36' W 038°30'   270 / 291024.2 5.4 7.0 2.612.0

Dump ship's entire track history